createdAt,value
2018-12-09T00:00:06.909Z,985.94
2018-12-09T00:01:06.911Z,985.95
2018-12-09T00:02:06.859Z,985.92
2018-12-09T00:03:06.839Z,985.86
2018-12-09T00:04:06.820Z,985.81
2018-12-09T00:05:06.793Z,985.77
2018-12-09T00:06:06.763Z,985.84
2018-12-09T00:07:06.750Z,985.91
2018-12-09T00:08:06.725Z,985.85
2018-12-09T00:09:06.694Z,985.85
2018-12-09T00:10:06.679Z,985.84
2018-12-09T00:11:06.657Z,985.82
2018-12-09T00:12:06.619Z,985.90
2018-12-09T00:13:06.598Z,985.97
2018-12-09T00:14:06.577Z,985.95
2018-12-09T00:15:06.558Z,985.88
2018-12-09T00:16:06.543Z,985.86
2018-12-09T00:17:06.509Z,985.92
2018-12-09T00:18:06.478Z,985.92
2018-12-09T00:19:06.457Z,985.90
2018-12-09T00:20:06.435Z,985.92
2018-12-09T00:21:06.410Z,985.89
2018-12-09T00:22:06.387Z,985.87
2018-12-09T00:23:06.362Z,985.91
2018-12-09T00:24:06.340Z,985.88
2018-12-09T00:25:06.315Z,985.85
2018-12-09T00:26:06.291Z,985.94
2018-12-09T00:27:06.267Z,985.91
2018-12-09T00:28:06.247Z,986.04
2018-12-09T00:29:06.221Z,985.96
2018-12-09T00:30:06.211Z,985.90
2018-12-09T00:31:06.176Z,985.90
2018-12-09T00:32:06.152Z,985.93
2018-12-09T00:33:06.125Z,985.86
2018-12-09T00:34:06.101Z,985.79
2018-12-09T00:35:06.095Z,985.70
2018-12-09T00:36:06.055Z,985.70
2018-12-09T00:37:06.040Z,985.68
2018-12-09T00:38:06.008Z,985.61
2018-12-09T00:39:05.995Z,985.64
2018-12-09T00:40:05.964Z,985.66
2018-12-09T00:41:05.941Z,985.61
2018-12-09T00:42:05.914Z,985.63
2018-12-09T00:43:05.892Z,985.61
2018-12-09T00:44:05.865Z,985.56
2018-12-09T00:45:05.842Z,985.65
2018-12-09T00:46:05.828Z,985.67
2018-12-09T00:47:05.798Z,985.64
2018-12-09T00:48:05.779Z,985.74
2018-12-09T00:49:05.756Z,985.76
2018-12-09T00:50:05.741Z,985.70
2018-12-09T00:51:05.702Z,985.69
2018-12-09T00:52:05.678Z,985.72
2018-12-09T00:53:05.658Z,985.67
2018-12-09T00:54:05.631Z,985.72
2018-12-09T00:55:05.608Z,985.68
2018-12-09T00:56:05.595Z,985.72
2018-12-09T00:57:05.563Z,985.75
2018-12-09T00:58:05.537Z,985.70
2018-12-09T00:59:05.613Z,985.71
2018-12-09T01:00:05.489Z,985.69
2018-12-09T01:01:05.473Z,985.69
2018-12-09T01:02:05.444Z,985.66
2018-12-09T01:03:05.420Z,985.60
2018-12-09T01:04:05.411Z,985.63
2018-12-09T01:05:05.370Z,985.60
2018-12-09T01:06:05.355Z,985.56
2018-12-09T01:07:05.340Z,985.64
2018-12-09T01:08:05.304Z,985.59
2018-12-09T01:09:05.275Z,985.57
2018-12-09T01:10:05.269Z,985.61
2018-12-09T01:11:05.240Z,985.63
2018-12-09T01:12:05.206Z,985.50
2018-12-09T01:13:05.183Z,985.60
2018-12-09T01:14:05.165Z,985.53
2018-12-09T01:15:05.144Z,985.64
2018-12-09T01:16:05.113Z,985.67
2018-12-09T01:17:05.098Z,985.52
2018-12-09T01:18:05.070Z,985.68
2018-12-09T01:19:05.044Z,985.67
2018-12-09T01:20:05.027Z,985.62
2018-12-09T01:21:04.997Z,985.74
2018-12-09T01:22:04.973Z,985.77
2018-12-09T01:23:04.959Z,985.68
2018-12-09T01:24:04.973Z,985.69
2018-12-09T01:25:04.899Z,985.74
2018-12-09T01:26:04.877Z,985.83
2018-12-09T01:27:04.855Z,985.70
2018-12-09T01:28:04.830Z,985.73
2018-12-09T01:29:04.807Z,985.78
2018-12-09T01:30:04.782Z,985.72
2018-12-09T01:31:04.762Z,985.65
2018-12-09T01:32:04.740Z,985.80
2018-12-09T01:33:04.718Z,985.86
2018-12-09T01:34:04.697Z,985.75
2018-12-09T01:35:04.664Z,985.73
2018-12-09T01:36:04.648Z,985.77
2018-12-09T01:37:04.627Z,985.88
2018-12-09T01:38:04.596Z,985.78
2018-12-09T01:39:04.580Z,985.78
2018-12-09T01:40:04.555Z,985.87
2018-12-09T01:41:04.524Z,985.87
2018-12-09T01:42:04.500Z,985.84
2018-12-09T01:43:04.475Z,985.84
2018-12-09T01:44:04.480Z,985.81
2018-12-09T01:45:04.436Z,985.94
2018-12-09T01:46:04.417Z,985.95
2018-12-09T01:47:04.388Z,985.94
2018-12-09T01:48:04.367Z,985.97
2018-12-09T01:49:04.338Z,985.92
2018-12-09T01:50:04.314Z,986.01
2018-12-09T01:51:04.297Z,986.10
2018-12-09T01:52:04.267Z,986.07
2018-12-09T01:53:04.239Z,986.00
2018-12-09T01:54:04.220Z,986.08
2018-12-09T01:55:04.194Z,986.01
2018-12-09T01:56:04.171Z,986.01
2018-12-09T01:57:04.147Z,985.97
2018-12-09T01:58:04.123Z,986.04
2018-12-09T01:59:04.106Z,986.04
2018-12-09T02:00:04.081Z,986.01
2018-12-09T02:01:04.053Z,985.93
2018-12-09T02:02:04.029Z,985.94
2018-12-09T02:03:04.005Z,985.94
2018-12-09T02:04:03.982Z,985.97
2018-12-09T02:05:03.967Z,985.96
2018-12-09T02:06:03.935Z,985.96
2018-12-09T02:07:03.924Z,985.95
2018-12-09T02:08:03.889Z,986.01
2018-12-09T02:09:03.865Z,985.96
2018-12-09T02:10:03.849Z,986.10
2018-12-09T02:11:03.819Z,986.18
2018-12-09T02:12:03.803Z,986.14
2018-12-09T02:13:03.771Z,986.20
2018-12-09T02:14:03.747Z,986.13
2018-12-09T02:15:03.725Z,986.24
2018-12-09T02:16:03.701Z,986.22
2018-12-09T02:17:03.678Z,986.18
2018-12-09T02:18:03.676Z,986.24
2018-12-09T02:19:03.638Z,986.11
2018-12-09T02:20:03.607Z,986.19
2018-12-09T02:21:03.585Z,986.32
2018-12-09T02:22:03.563Z,986.21
2018-12-09T02:23:03.537Z,986.28
2018-12-09T02:24:03.514Z,986.18
2018-12-09T02:25:03.495Z,986.35
2018-12-09T02:26:03.467Z,986.27
2018-12-09T02:27:03.445Z,986.31
2018-12-09T02:28:03.421Z,986.26
2018-12-09T02:29:03.396Z,986.28
2018-12-09T02:30:03.376Z,986.32
2018-12-09T02:31:03.357Z,986.28
2018-12-09T02:32:03.342Z,986.31
2018-12-09T02:33:03.304Z,986.23
2018-12-09T02:34:03.285Z,986.32
2018-12-09T02:35:03.258Z,986.38
2018-12-09T02:36:03.240Z,986.34
2018-12-09T02:37:03.219Z,986.38
2018-12-09T02:38:03.187Z,986.37
2018-12-09T02:39:03.165Z,986.39
2018-12-09T02:40:03.142Z,986.40
2018-12-09T02:41:03.125Z,986.42
2018-12-09T02:42:03.093Z,986.36
2018-12-09T02:43:03.084Z,986.38
2018-12-09T02:44:03.046Z,986.45
2018-12-09T02:45:03.025Z,986.39
2018-12-09T02:46:03.001Z,986.38
2018-12-09T02:47:02.980Z,986.41
2018-12-09T02:48:02.954Z,986.46
2018-12-09T02:49:02.930Z,986.46
2018-12-09T02:50:02.907Z,986.43
2018-12-09T02:51:02.885Z,986.39
2018-12-09T02:52:02.861Z,986.42
2018-12-09T02:53:02.839Z,986.39
2018-12-09T02:54:02.815Z,986.39
2018-12-09T02:55:02.899Z,986.43
2018-12-09T02:56:02.771Z,986.38
2018-12-09T02:57:02.743Z,986.41
2018-12-09T02:58:02.724Z,986.41
2018-12-09T02:59:02.698Z,986.37
2018-12-09T03:00:02.676Z,986.34
2018-12-09T03:01:02.650Z,986.41
2018-12-09T03:02:02.627Z,986.39
2018-12-09T03:03:02.607Z,986.38
2018-12-09T03:04:02.588Z,986.37
2018-12-09T03:05:02.558Z,986.37
2018-12-09T03:06:02.535Z,986.45
2018-12-09T03:07:02.511Z,986.40
2018-12-09T03:08:02.487Z,986.46
2018-12-09T03:09:02.464Z,986.40
2018-12-09T03:10:02.447Z,986.44
2018-12-09T03:11:02.417Z,986.39
2018-12-09T03:12:02.398Z,986.45
2018-12-09T03:13:02.373Z,986.37
2018-12-09T03:14:02.350Z,986.32
2018-12-09T03:15:02.324Z,986.42
2018-12-09T03:16:02.302Z,986.34
2018-12-09T03:17:02.281Z,986.34
2018-12-09T03:18:02.254Z,986.35
2018-12-09T03:19:02.232Z,986.39
2018-12-09T03:20:02.223Z,986.42
2018-12-09T03:21:02.188Z,986.37
2018-12-09T03:22:02.168Z,986.59
2018-12-09T03:23:02.140Z,986.49
2018-12-09T03:24:02.119Z,986.55
2018-12-09T03:25:02.104Z,986.42
2018-12-09T03:26:02.072Z,986.53
2018-12-09T03:27:02.201Z,986.48
2018-12-09T03:28:02.024Z,986.42
2018-12-09T03:29:02.015Z,986.49
2018-12-09T03:30:01.978Z,986.43
2018-12-09T03:31:01.961Z,986.46
2018-12-09T03:32:01.929Z,986.53
2018-12-09T03:33:01.912Z,986.58
2018-12-09T03:34:01.884Z,986.41
2018-12-09T03:35:01.861Z,986.54
2018-12-09T03:36:01.844Z,986.56
2018-12-09T03:37:01.815Z,986.53
2018-12-09T03:38:01.789Z,986.52
2018-12-09T03:39:01.770Z,986.57
2018-12-09T03:40:01.751Z,986.53
2018-12-09T03:41:01.720Z,986.61
2018-12-09T03:42:01.696Z,986.57
2018-12-09T03:43:01.679Z,986.59
2018-12-09T03:44:01.650Z,986.58
2018-12-09T03:45:01.633Z,986.68
2018-12-09T03:46:01.603Z,986.66
2018-12-09T03:47:01.580Z,986.79
2018-12-09T03:48:01.568Z,986.74
2018-12-09T03:49:01.532Z,986.63
2018-12-09T03:50:01.511Z,986.76
2018-12-09T03:51:01.486Z,986.77
2018-12-09T03:52:01.461Z,986.78
2018-12-09T03:53:01.438Z,986.80
2018-12-09T03:54:01.431Z,986.82
2018-12-09T03:55:01.394Z,986.77
2018-12-09T03:56:01.466Z,986.78
2018-12-09T03:57:01.347Z,986.78
2018-12-09T03:58:01.329Z,986.75
2018-12-09T03:59:01.307Z,986.77
2018-12-09T04:00:01.281Z,986.77
2018-12-09T04:01:01.267Z,986.72
2018-12-09T04:02:01.232Z,986.75
2018-12-09T04:03:01.212Z,986.77
2018-12-09T04:04:01.186Z,986.79
2018-12-09T04:05:01.159Z,986.70
2018-12-09T04:06:01.136Z,986.75
2018-12-09T04:07:01.113Z,986.66
2018-12-09T04:08:01.089Z,986.68
2018-12-09T04:09:01.066Z,986.68
2018-12-09T04:10:01.044Z,986.67
2018-12-09T04:11:01.020Z,986.76
2018-12-09T04:12:00.997Z,986.78
2018-12-09T04:13:00.975Z,986.67
2018-12-09T04:14:00.959Z,986.76
2018-12-09T04:15:00.972Z,986.76
2018-12-09T04:16:00.907Z,986.64
2018-12-09T04:17:00.898Z,986.70
2018-12-09T04:18:00.858Z,986.69
2018-12-09T04:19:00.845Z,986.75
2018-12-09T04:20:00.814Z,986.70
2018-12-09T04:21:00.787Z,986.73
2018-12-09T04:22:00.766Z,986.69
2018-12-09T04:23:00.744Z,986.62
2018-12-09T04:24:00.718Z,986.57
2018-12-09T04:25:00.694Z,986.69
2018-12-09T04:26:00.672Z,986.71
2018-12-09T04:27:00.651Z,986.63
2018-12-09T04:28:00.625Z,986.71
2018-12-09T04:29:00.601Z,986.72
2018-12-09T04:30:00.579Z,986.84
2018-12-09T04:31:00.552Z,986.87
2018-12-09T04:32:00.529Z,986.78
2018-12-09T04:33:00.507Z,986.88
2018-12-09T04:34:00.486Z,986.84
2018-12-09T04:35:00.460Z,986.85
2018-12-09T04:36:00.436Z,986.89
2018-12-09T04:37:00.413Z,986.86
2018-12-09T04:38:00.389Z,986.94
2018-12-09T04:39:00.370Z,986.91
2018-12-09T04:40:00.343Z,986.90
2018-12-09T04:41:00.372Z,986.85
2018-12-09T04:42:00.295Z,986.87
2018-12-09T04:43:00.277Z,986.93
2018-12-09T04:44:00.247Z,987.03
2018-12-09T04:45:00.227Z,986.99
2018-12-09T04:46:00.203Z,987.04
2018-12-09T04:47:00.188Z,986.99
2018-12-09T04:48:00.156Z,986.99
2018-12-09T04:49:00.132Z,987.02
2018-12-09T04:50:00.113Z,986.94
2018-12-09T04:51:00.090Z,987.01
2018-12-09T04:52:00.062Z,986.98
2018-12-09T04:53:00.045Z,987.01
2018-12-09T04:54:00.017Z,987.02
2018-12-09T04:54:59.991Z,986.94
2018-12-09T04:55:59.968Z,986.91
2018-12-09T04:56:59.947Z,986.93
2018-12-09T04:57:59.924Z,987.01
2018-12-09T04:58:59.949Z,986.98
2018-12-09T04:59:59.877Z,987.01
2018-12-09T05:00:59.853Z,987.02
2018-12-09T05:01:59.829Z,987.05
2018-12-09T05:02:59.804Z,987.04
2018-12-09T05:03:59.780Z,987.03
2018-12-09T05:04:59.758Z,987.05
2018-12-09T05:05:59.744Z,987.07
2018-12-09T05:06:59.711Z,987.09
2018-12-09T05:07:59.689Z,987.11
2018-12-09T05:08:59.664Z,987.19
2018-12-09T05:09:59.649Z,987.26
2018-12-09T05:10:59.622Z,987.19
2018-12-09T05:11:59.596Z,987.16
2018-12-09T05:12:59.574Z,987.11
2018-12-09T05:13:59.552Z,987.20
2018-12-09T05:14:59.535Z,987.20
2018-12-09T05:15:59.501Z,987.20
2018-12-09T05:16:59.480Z,987.20
2018-12-09T05:17:59.453Z,987.18
2018-12-09T05:18:59.445Z,987.26
2018-12-09T05:19:59.406Z,987.24
2018-12-09T05:20:59.385Z,987.19
2018-12-09T05:21:59.362Z,987.14
2018-12-09T05:22:59.346Z,987.19
2018-12-09T05:23:59.466Z,987.15
2018-12-09T05:24:59.294Z,987.17
2018-12-09T05:25:59.269Z,987.24
2018-12-09T05:26:59.246Z,987.25
2018-12-09T05:27:59.222Z,987.30
2018-12-09T05:28:59.197Z,987.26
2018-12-09T05:29:59.177Z,987.27
2018-12-09T05:30:59.151Z,987.31
2018-12-09T05:31:59.126Z,987.30
2018-12-09T05:32:59.104Z,987.33
2018-12-09T05:33:59.080Z,987.37
2018-12-09T05:34:59.166Z,987.38
2018-12-09T05:35:59.033Z,987.32
2018-12-09T05:36:59.013Z,987.32
2018-12-09T05:37:58.997Z,987.32
2018-12-09T05:38:58.964Z,987.33
2018-12-09T05:39:58.944Z,987.37
2018-12-09T05:40:58.917Z,987.38
2018-12-09T05:41:58.910Z,987.37
2018-12-09T05:42:58.870Z,987.37
2018-12-09T05:43:58.848Z,987.42
2018-12-09T05:44:58.824Z,987.33
2018-12-09T05:45:58.804Z,987.34
2018-12-09T05:46:58.778Z,987.42
2018-12-09T05:47:58.755Z,987.39
2018-12-09T05:48:58.731Z,987.46
2018-12-09T05:49:58.714Z,987.47
2018-12-09T05:50:58.685Z,987.41
2018-12-09T05:51:58.659Z,987.49
2018-12-09T05:52:58.640Z,987.51
2018-12-09T05:53:58.615Z,987.51
2018-12-09T05:54:58.593Z,987.43
2018-12-09T05:55:58.568Z,987.54
2018-12-09T05:56:58.545Z,987.48
2018-12-09T05:57:58.526Z,987.51
2018-12-09T05:58:58.501Z,987.49
2018-12-09T05:59:58.483Z,987.54
2018-12-09T06:00:58.452Z,987.56
2018-12-09T06:01:58.432Z,987.58
2018-12-09T06:02:58.407Z,987.63
2018-12-09T06:03:58.481Z,987.64
2018-12-09T06:04:58.359Z,987.64
2018-12-09T06:05:58.390Z,987.60
2018-12-09T06:06:58.314Z,987.66
2018-12-09T06:07:58.289Z,987.66
2018-12-09T06:08:58.287Z,987.72
2018-12-09T06:09:58.243Z,987.65
2018-12-09T06:10:58.218Z,987.63
2018-12-09T06:11:58.195Z,987.67
2018-12-09T06:12:58.175Z,987.65
2018-12-09T06:13:58.153Z,987.64
2018-12-09T06:14:58.128Z,987.67
2018-12-09T06:15:58.105Z,987.65
2018-12-09T06:16:58.081Z,987.74
2018-12-09T06:17:58.058Z,987.70
2018-12-09T06:18:58.039Z,987.70
2018-12-09T06:19:58.012Z,987.68
2018-12-09T06:20:57.987Z,987.71
2018-12-09T06:21:57.965Z,987.67
2018-12-09T06:22:57.946Z,987.70
2018-12-09T06:23:57.918Z,987.76
2018-12-09T06:24:57.893Z,987.70
2018-12-09T06:25:57.871Z,987.79
2018-12-09T06:26:57.851Z,987.71
2018-12-09T06:27:57.827Z,987.68
2018-12-09T06:28:57.803Z,987.74
2018-12-09T06:29:57.781Z,987.72
2018-12-09T06:30:57.757Z,987.81
2018-12-09T06:31:57.734Z,987.76
2018-12-09T06:32:57.708Z,987.76
2018-12-09T06:33:57.691Z,987.83
2018-12-09T06:34:57.670Z,987.72
2018-12-09T06:35:57.650Z,987.73
2018-12-09T06:36:57.624Z,987.75
2018-12-09T06:37:57.591Z,987.67
2018-12-09T06:38:57.570Z,987.78
2018-12-09T06:39:57.553Z,987.85
2018-12-09T06:40:57.521Z,987.77
2018-12-09T06:41:57.499Z,987.84
2018-12-09T06:42:57.475Z,987.84
2018-12-09T06:43:57.453Z,987.82
2018-12-09T06:44:57.438Z,987.75
2018-12-09T06:45:57.405Z,987.74
2018-12-09T06:46:57.400Z,987.79
2018-12-09T06:47:57.359Z,987.81
2018-12-09T06:48:57.334Z,987.83
2018-12-09T06:49:57.311Z,987.82
2018-12-09T06:50:57.289Z,987.84
2018-12-09T06:51:57.269Z,987.89
2018-12-09T06:52:57.244Z,987.85
2018-12-09T06:53:57.231Z,987.94
2018-12-09T06:54:57.200Z,987.86
2018-12-09T06:55:57.174Z,987.96
2018-12-09T06:56:57.152Z,987.91
2018-12-09T06:57:57.129Z,987.99
2018-12-09T06:58:57.101Z,988.00
2018-12-09T06:59:57.079Z,988.02
2018-12-09T07:00:57.056Z,987.98
2018-12-09T07:01:57.035Z,988.03
2018-12-09T07:02:57.009Z,987.98
2018-12-09T07:03:56.983Z,988.10
2018-12-09T07:04:56.962Z,988.06
2018-12-09T07:05:56.945Z,988.11
2018-12-09T07:06:56.914Z,988.04
2018-12-09T07:07:56.891Z,987.97
2018-12-09T07:08:56.868Z,988.05
2018-12-09T07:09:56.844Z,988.07
2018-12-09T07:10:56.835Z,988.05
2018-12-09T07:11:56.798Z,988.14
2018-12-09T07:12:56.782Z,988.05
2018-12-09T07:13:56.756Z,988.09
2018-12-09T07:14:56.727Z,988.21
2018-12-09T07:15:56.703Z,988.14
2018-12-09T07:16:56.681Z,988.20
2018-12-09T07:17:56.657Z,988.20
2018-12-09T07:18:56.636Z,988.16
2018-12-09T07:19:56.610Z,988.28
2018-12-09T07:20:56.587Z,988.29
2018-12-09T07:21:56.571Z,988.25
2018-12-09T07:22:56.540Z,988.32
2018-12-09T07:23:56.517Z,988.28
2018-12-09T07:24:56.495Z,988.36
2018-12-09T07:25:56.469Z,988.42
2018-12-09T07:26:56.448Z,988.32
2018-12-09T07:27:56.430Z,988.36
2018-12-09T07:28:56.401Z,988.45
2018-12-09T07:30:02.306Z,988.52
2018-12-09T07:30:56.355Z,988.45
2018-12-09T07:31:56.331Z,988.37
2018-12-09T07:32:56.314Z,988.29
2018-12-09T07:33:56.283Z,988.36
2018-12-09T07:34:56.269Z,988.38
2018-12-09T07:35:56.275Z,988.52
2018-12-09T07:36:56.214Z,988.45
2018-12-09T07:37:56.197Z,988.55
2018-12-09T07:38:56.168Z,988.43
2018-12-09T07:39:56.144Z,988.58
2018-12-09T07:40:56.121Z,988.50
2018-12-09T07:41:56.097Z,988.66
2018-12-09T07:42:56.074Z,988.66
2018-12-09T07:43:56.058Z,988.75
2018-12-09T07:44:56.027Z,988.76
2018-12-09T07:45:56.019Z,988.88
2018-12-09T07:46:55.980Z,988.83
2018-12-09T07:47:55.957Z,988.85
2018-12-09T07:48:55.933Z,988.87
2018-12-09T07:49:55.911Z,988.92
2018-12-09T07:50:55.886Z,988.93
2018-12-09T07:51:55.864Z,989.00
2018-12-09T07:52:55.841Z,989.09
2018-12-09T07:53:55.818Z,989.16
2018-12-09T07:54:55.794Z,989.17
2018-12-09T07:55:55.768Z,989.25
2018-12-09T07:56:55.746Z,989.22
2018-12-09T07:57:56.707Z,989.26
2018-12-09T07:58:55.701Z,989.33
2018-12-09T07:59:55.676Z,989.25
2018-12-09T08:00:55.654Z,989.39
2018-12-09T08:01:55.639Z,989.44
2018-12-09T08:02:55.611Z,989.51
2018-12-09T08:03:55.584Z,989.54
2018-12-09T08:04:55.562Z,989.60
2018-12-09T08:05:55.539Z,989.66
2018-12-09T08:06:55.515Z,989.57
2018-12-09T08:07:55.491Z,989.67
2018-12-09T08:08:56.963Z,989.79
2018-12-09T08:09:55.462Z,989.77
2018-12-09T08:10:55.421Z,989.84
2018-12-09T08:11:55.401Z,989.83
2018-12-09T08:12:55.374Z,989.88
2018-12-09T08:13:55.352Z,989.87
2018-12-09T08:14:55.328Z,989.91
2018-12-09T08:15:55.303Z,989.94
2018-12-09T08:16:55.282Z,989.92
2018-12-09T08:17:55.266Z,989.90
2018-12-09T08:18:55.236Z,989.89
2018-12-09T08:19:55.211Z,989.81
2018-12-09T08:20:55.196Z,989.95
2018-12-09T08:21:55.166Z,989.88
2018-12-09T08:22:55.142Z,989.92
2018-12-09T08:23:55.118Z,989.85
2018-12-09T08:24:55.095Z,989.99
2018-12-09T08:25:55.122Z,990.07
2018-12-09T08:26:55.048Z,990.04
2018-12-09T08:27:55.034Z,989.89
2018-12-09T08:28:55.002Z,989.90
2018-12-09T08:29:54.983Z,989.90
2018-12-09T08:30:54.954Z,989.93
2018-12-09T08:31:54.933Z,989.94
2018-12-09T08:32:54.909Z,989.90
2018-12-09T08:33:54.894Z,989.98
2018-12-09T08:34:54.864Z,989.95
2018-12-09T08:35:54.837Z,990.05
2018-12-09T08:36:54.900Z,990.02
2018-12-09T08:37:54.795Z,990.01
2018-12-09T08:38:54.769Z,990.02
2018-12-09T08:39:54.744Z,990.04
2018-12-09T08:40:54.721Z,990.04
2018-12-09T08:41:54.698Z,990.08
2018-12-09T08:42:54.675Z,990.04
2018-12-09T08:43:54.657Z,990.11
2018-12-09T08:44:54.626Z,990.04
2018-12-09T08:45:54.618Z,990.11
2018-12-09T08:46:54.579Z,990.06
2018-12-09T08:47:54.656Z,990.06
2018-12-09T08:48:54.541Z,990.05
2018-12-09T08:49:54.509Z,990.10
2018-12-09T08:50:54.485Z,990.18
2018-12-09T08:51:54.464Z,990.21
2018-12-09T08:52:54.438Z,990.28
2018-12-09T08:53:54.414Z,990.28
2018-12-09T08:54:54.400Z,990.20
2018-12-09T08:55:54.367Z,990.23
2018-12-09T08:56:54.346Z,990.24
2018-12-09T08:57:54.321Z,990.26
2018-12-09T08:58:54.301Z,990.27
2018-12-09T08:59:54.291Z,990.30
2018-12-09T09:00:54.251Z,990.41
2018-12-09T09:01:54.236Z,990.42
2018-12-09T09:02:54.213Z,990.39
2018-12-09T09:03:54.180Z,990.44
2018-12-09T09:04:54.166Z,990.48
2018-12-09T09:05:54.143Z,990.51
2018-12-09T09:06:54.117Z,990.52
2018-12-09T09:07:54.086Z,990.51
2018-12-09T09:08:54.072Z,990.56
2018-12-09T09:09:54.049Z,990.57
2018-12-09T09:10:54.034Z,990.63
2018-12-09T09:11:53.993Z,990.66
2018-12-09T09:12:53.978Z,990.72
2018-12-09T09:13:53.946Z,990.71
2018-12-09T09:14:53.943Z,990.70
2018-12-09T09:15:53.920Z,990.70
2018-12-09T09:16:53.888Z,990.72
2018-12-09T09:17:53.853Z,990.73
2018-12-09T09:18:53.838Z,990.74
2018-12-09T09:19:53.808Z,990.72
2018-12-09T09:20:53.791Z,990.78
2018-12-09T09:21:53.762Z,990.80
2018-12-09T09:22:53.738Z,990.82
2018-12-09T09:23:53.715Z,990.87
2018-12-09T09:24:53.703Z,990.86
2018-12-09T09:25:53.732Z,990.88
2018-12-09T09:26:53.646Z,990.91
2018-12-09T09:27:53.622Z,990.92
2018-12-09T09:28:53.599Z,990.90
2018-12-09T09:29:53.585Z,990.87
2018-12-09T09:30:53.561Z,990.87
2018-12-09T09:31:53.542Z,990.97
2018-12-09T09:32:53.506Z,991.01
2018-12-09T09:33:53.481Z,991.02
2018-12-09T09:34:53.461Z,991.11
2018-12-09T09:35:53.433Z,991.06
2018-12-09T09:36:53.420Z,991.14
2018-12-09T09:37:53.391Z,991.06
2018-12-09T09:38:53.378Z,991.12
2018-12-09T09:39:53.349Z,991.06
2018-12-09T09:40:53.320Z,991.03
2018-12-09T09:41:53.299Z,990.98
2018-12-09T09:42:53.275Z,990.98
2018-12-09T09:43:53.252Z,991.04
2018-12-09T09:44:53.233Z,991.07
2018-12-09T09:45:53.213Z,991.08
2018-12-09T09:46:53.184Z,991.14
2018-12-09T09:47:53.160Z,991.07
2018-12-09T09:48:53.137Z,991.11
2018-12-09T09:49:53.119Z,991.09
2018-12-09T09:50:53.090Z,991.17
2018-12-09T09:51:53.082Z,991.16
2018-12-09T09:52:53.045Z,991.16
2018-12-09T09:53:53.028Z,991.16
2018-12-09T09:54:53.006Z,991.16
2018-12-09T09:55:52.973Z,991.13
2018-12-09T09:56:52.955Z,991.15
2018-12-09T09:57:52.927Z,991.21
2018-12-09T09:58:52.906Z,991.21
2018-12-09T09:59:52.883Z,991.25
2018-12-09T10:00:52.858Z,991.28
2018-12-09T10:01:52.852Z,991.23
2018-12-09T10:02:52.811Z,991.24
2018-12-09T10:03:52.798Z,991.26
2018-12-09T10:04:52.767Z,991.24
2018-12-09T10:05:52.749Z,991.30
2018-12-09T10:06:52.721Z,991.30
2018-12-09T10:07:52.704Z,991.32
2018-12-09T10:08:52.680Z,991.34
2018-12-09T10:09:52.651Z,991.37
2018-12-09T10:10:52.637Z,991.34
2018-12-09T10:11:52.615Z,991.31
2018-12-09T10:12:52.597Z,991.36
2018-12-09T10:13:52.560Z,991.39
2018-12-09T10:14:52.538Z,991.44
2018-12-09T10:15:52.522Z,991.43
2018-12-09T10:16:52.511Z,991.46
2018-12-09T10:17:52.470Z,991.48
2018-12-09T10:18:52.448Z,991.51
2018-12-09T10:19:52.422Z,991.55
2018-12-09T10:20:52.405Z,991.54
2018-12-09T10:21:52.390Z,991.58
2018-12-09T10:22:52.389Z,991.58
2018-12-09T10:23:52.331Z,991.60
2018-12-09T10:24:52.403Z,991.56
2018-12-09T10:25:52.288Z,991.56
2018-12-09T10:26:52.273Z,991.60
2018-12-09T10:27:52.238Z,991.59
2018-12-09T10:28:52.216Z,991.58
2018-12-09T10:29:52.193Z,991.60
2018-12-09T10:30:52.171Z,991.65
2018-12-09T10:31:52.148Z,991.66
2018-12-09T10:32:52.129Z,991.72
2018-12-09T10:33:52.106Z,991.73
2018-12-09T10:34:52.087Z,991.72
2018-12-09T10:35:52.062Z,991.72
2018-12-09T10:36:52.048Z,991.79
2018-12-09T10:37:52.013Z,991.72
2018-12-09T10:38:51.996Z,991.75
2018-12-09T10:39:52.055Z,991.77
2018-12-09T10:40:51.949Z,991.76
2018-12-09T10:41:51.921Z,991.78
2018-12-09T10:42:51.909Z,991.78
2018-12-09T10:43:51.878Z,991.77
2018-12-09T10:44:51.862Z,991.81
2018-12-09T10:45:51.833Z,991.84
2018-12-09T10:46:51.818Z,991.81
2018-12-09T10:47:51.795Z,991.82
2018-12-09T10:48:51.778Z,991.83
2018-12-09T10:49:51.743Z,991.88
2018-12-09T10:50:51.735Z,991.87
2018-12-09T10:51:51.696Z,991.88
2018-12-09T10:52:51.694Z,991.90
2018-12-09T10:53:51.650Z,991.93
2018-12-09T10:54:51.732Z,991.96
2018-12-09T10:55:51.607Z,991.95
2018-12-09T10:56:51.585Z,992.03
2018-12-09T10:57:51.615Z,991.99
2018-12-09T10:58:51.551Z,992.01
2018-12-09T10:59:51.517Z,992.00
2018-12-09T11:00:51.496Z,991.98
2018-12-09T11:01:51.482Z,992.00
2018-12-09T11:02:51.451Z,992.02
2018-12-09T11:03:51.431Z,992.03
2018-12-09T11:04:51.416Z,992.02
2018-12-09T11:05:51.384Z,992.00
2018-12-09T11:06:51.363Z,992.06
2018-12-09T11:07:51.341Z,992.08
2018-12-09T11:08:51.318Z,992.09
2018-12-09T11:09:51.297Z,992.03
2018-12-09T11:10:51.293Z,992.04
2018-12-09T11:11:51.256Z,992.06
2018-12-09T11:12:51.232Z,992.05
2018-12-09T11:13:58.115Z,992.07
2018-12-09T11:14:51.193Z,992.12
2018-12-09T11:15:51.171Z,992.12
2018-12-09T11:16:51.142Z,992.12
2018-12-09T11:17:51.126Z,992.12
2018-12-09T11:18:51.111Z,992.17
2018-12-09T11:19:51.083Z,992.21
2018-12-09T11:20:51.052Z,992.19
2018-12-09T11:21:51.037Z,992.17
2018-12-09T11:22:51.007Z,992.14
2018-12-09T11:23:50.986Z,992.20
2018-12-09T11:24:50.972Z,992.19
2018-12-09T11:25:50.940Z,992.22
2018-12-09T11:26:50.925Z,992.25
2018-12-09T11:27:50.896Z,992.25
2018-12-09T11:28:50.872Z,992.24
2018-12-09T11:29:50.852Z,992.20
2018-12-09T11:30:50.841Z,992.24
2018-12-09T11:31:50.815Z,992.25
2018-12-09T11:32:50.792Z,992.31
2018-12-09T11:33:50.771Z,992.34
2018-12-09T11:34:50.746Z,992.36
2018-12-09T11:35:50.718Z,992.35
2018-12-09T11:36:50.703Z,992.35
2018-12-09T11:37:50.674Z,992.35
2018-12-09T11:38:50.649Z,992.31
2018-12-09T11:39:50.650Z,992.34
2018-12-09T11:40:50.606Z,992.33
2018-12-09T11:41:50.582Z,992.42
2018-12-09T11:42:50.570Z,992.40
2018-12-09T11:43:50.537Z,992.40
2018-12-09T11:44:50.522Z,992.40
2018-12-09T11:45:50.493Z,992.42
2018-12-09T11:46:50.470Z,992.42
2018-12-09T11:47:50.447Z,992.37
2018-12-09T11:48:50.453Z,992.44
2018-12-09T11:49:50.415Z,992.50
2018-12-09T11:50:50.387Z,992.49
2018-12-09T11:51:50.358Z,992.45
2018-12-09T11:52:50.343Z,992.47
2018-12-09T11:53:50.319Z,992.48
2018-12-09T11:54:50.307Z,992.44
2018-12-09T11:55:50.275Z,992.41
2018-12-09T11:56:50.246Z,992.50
2018-12-09T11:57:50.227Z,992.53
2018-12-09T11:58:50.219Z,992.57
2018-12-09T11:59:50.180Z,992.61
2018-12-09T12:00:50.156Z,992.58
2018-12-09T12:01:50.140Z,992.56
2018-12-09T12:02:50.120Z,992.56
2018-12-09T12:03:50.089Z,992.57
2018-12-09T12:04:50.066Z,992.65
2018-12-09T12:05:50.052Z,992.66
2018-12-09T12:06:50.028Z,992.62
2018-12-09T12:07:50.002Z,992.67
2018-12-09T12:08:49.979Z,992.68
2018-12-09T12:09:49.958Z,992.71
2018-12-09T12:10:49.932Z,992.69
2018-12-09T12:11:49.925Z,992.70
2018-12-09T12:12:49.896Z,992.72
2018-12-09T12:13:49.880Z,992.72
2018-12-09T12:14:49.844Z,992.74
2018-12-09T12:15:49.817Z,992.71
2018-12-09T12:16:49.794Z,992.75
2018-12-09T12:17:49.780Z,992.77
2018-12-09T12:18:49.756Z,992.78
2018-12-09T12:19:49.745Z,992.79
2018-12-09T12:20:49.707Z,992.81
2018-12-09T12:21:49.684Z,992.83
2018-12-09T12:22:49.661Z,992.85
2018-12-09T12:23:49.639Z,992.88
2018-12-09T12:24:49.618Z,992.84
2018-12-09T12:25:49.599Z,992.85
2018-12-09T12:26:49.583Z,992.82
2018-12-09T12:27:49.567Z,992.90